sensor_id;sensor_type;location;lat;lon;timestamp;pressure;altitude;pressure_sealevel;temperature;humidity
4570;BME280;2297;51.442;6.996;2023-02-18T00:00:14;100903.31;;;11.39;62.51
4570;BME280;2297;51.442;6.996;2023-02-18T00:02:42;100906.28;;;11.75;61.58
4570;BME280;2297;51.442;6.996;2023-02-18T00:05:11;100911.09;;;11.46;62.32
4570;BME280;2297;51.442;6.996;2023-02-18T00:07:39;100905.44;;;11.71;61.91
4570;BME280;2297;51.442;6.996;2023-02-18T00:10:10;100904.91;;;12.02;61.06
4570;BME280;2297;51.442;6.996;2023-02-18T00:12:37;100904.09;;;12.00;60.80
4570;BME280;2297;51.442;6.996;2023-02-18T00:15:05;100911.41;;;11.84;61.34
4570;BME280;2297;51.442;6.996;2023-02-18T00:17:32;100911.22;;;11.95;61.21
4570;BME280;2297;51.442;6.996;2023-02-18T00:19:58;100911.50;;;11.78;61.58
4570;BME280;2297;51.442;6.996;2023-02-18T00:22:26;100903.44;;;11.86;61.72
4570;BME280;2297;51.442;6.996;2023-02-18T00:24:54;100897.91;;;12.01;61.00
4570;BME280;2297;51.442;6.996;2023-02-18T00:27:21;100896.59;;;11.74;62.11
4570;BME280;2297;51.442;6.996;2023-02-18T00:29:47;100893.84;;;11.80;62.05
4570;BME280;2297;51.442;6.996;2023-02-18T00:32:14;100884.03;;;11.87;61.43
4570;BME280;2297;51.442;6.996;2023-02-18T00:34:41;100877.22;;;11.70;62.13
4570;BME280;2297;51.442;6.996;2023-02-18T00:37:07;100868.91;;;11.40;63.11
4570;BME280;2297;51.442;6.996;2023-02-18T00:39:36;100870.97;;;11.74;62.04
4570;BME280;2297;51.442;6.996;2023-02-18T00:42:03;100873.59;;;11.77;61.90
4570;BME280;2297;51.442;6.996;2023-02-18T00:44:29;100875.53;;;11.66;62.32
4570;BME280;2297;51.442;6.996;2023-02-18T00:46:56;100883.72;;;11.52;63.23
4570;BME280;2297;51.442;6.996;2023-02-18T00:49:23;100883.44;;;11.68;62.57
4570;BME280;2297;51.442;6.996;2023-02-18T00:51:49;100874.00;;;11.53;63.48
4570;BME280;2297;51.442;6.996;2023-02-18T00:54:16;100863.06;;;11.76;62.32
4570;BME280;2297;51.442;6.996;2023-02-18T00:56:44;100863.16;;;11.68;62.67
4570;BME280;2297;51.442;6.996;2023-02-18T00:59:11;100851.00;;;11.58;62.74
4570;BME280;2297;51.442;6.996;2023-02-18T01:01:37;100861.00;;;11.92;62.35
4570;BME280;2297;51.442;6.996;2023-02-18T01:04:04;100852.13;;;11.43;63.83
4570;BME280;2297;51.442;6.996;2023-02-18T01:06:31;100841.09;;;11.71;63.12
4570;BME280;2297;51.442;6.996;2023-02-18T01:08:57;100845.00;;;11.48;63.73
4570;BME280;2297;51.442;6.996;2023-02-18T01:11:24;100832.53;;;11.53;63.47
4570;BME280;2297;51.442;6.996;2023-02-18T01:13:52;100849.94;;;11.68;63.02
4570;BME280;2297;51.442;6.996;2023-02-18T01:16:19;100842.19;;;11.57;63.44
4570;BME280;2297;51.442;6.996;2023-02-18T01:18:46;100849.53;;;11.38;63.94
4570;BME280;2297;51.442;6.996;2023-02-18T01:21:12;100849.31;;;11.54;63.46
4570;BME280;2297;51.442;6.996;2023-02-18T01:23:40;100841.16;;;11.08;65.23
4570;BME280;2297;51.442;6.996;2023-02-18T01:26:08;100844.00;;;11.54;63.67
4570;BME280;2297;51.442;6.996;2023-02-18T01:28:35;100838.34;;;11.75;63.07
4570;BME280;2297;51.442;6.996;2023-02-18T01:31:06;100845.56;;;11.11;64.89
4570;BME280;2297;51.442;6.996;2023-02-18T01:33:33;100834.16;;;11.04;65.28
4570;BME280;2297;51.442;6.996;2023-02-18T01:36:00;100833.41;;;11.55;63.55
4570;BME280;2297;51.442;6.996;2023-02-18T01:38:27;100830.06;;;11.42;63.95
4570;BME280;2297;51.442;6.996;2023-02-18T01:40:53;100824.84;;;11.39;63.97
4570;BME280;2297;51.442;6.996;2023-02-18T01:43:21;100816.81;;;11.45;63.52
4570;BME280;2297;51.442;6.996;2023-02-18T01:46:10;100818.47;;;11.51;63.32
4570;BME280;2297;51.442;6.996;2023-02-18T01:48:40;100817.94;;;11.29;63.68
4570;BME280;2297;51.442;6.996;2023-02-18T01:51:10;100821.47;;;11.28;64.26
4570;BME280;2297;51.442;6.996;2023-02-18T01:53:40;100807.13;;;11.44;63.66
4570;BME280;2297;51.442;6.996;2023-02-18T01:56:12;100814.97;;;11.49;63.46
4570;BME280;2297;51.442;6.996;2023-02-18T01:58:40;100827.03;;;11.67;62.80
4570;BME280;2297;51.442;6.996;2023-02-18T02:01:09;100808.88;;;11.45;63.62
4570;BME280;2297;51.442;6.996;2023-02-18T02:03:36;100819.91;;;11.71;62.69
4570;BME280;2297;51.442;6.996;2023-02-18T02:06:08;100807.00;;;11.51;63.18
4570;BME280;2297;51.442;6.996;2023-02-18T02:08:36;100807.31;;;11.32;63.93
4570;BME280;2297;51.442;6.996;2023-02-18T02:11:10;100809.88;;;11.38;63.30
4570;BME280;2297;51.442;6.996;2023-02-18T02:13:54;100803.59;;;11.45;63.53
4570;BME280;2297;51.442;6.996;2023-02-18T02:16:29;100806.00;;;11.59;62.91
4570;BME280;2297;51.442;6.996;2023-02-18T02:19:11;100799.84;;;11.59;62.68
4570;BME280;2297;51.442;6.996;2023-02-18T02:22:13;100792.28;;;11.36;63.42
4570;BME280;2297;51.442;6.996;2023-02-18T02:25:14;100794.75;;;11.46;62.83
4570;BME280;2297;51.442;6.996;2023-02-18T02:28:10;100798.47;;;11.36;63.02
4570;BME280;2297;51.442;6.996;2023-02-18T02:30:58;100794.22;;;11.77;62.25
4570;BME280;2297;51.442;6.996;2023-02-18T02:36:28;100777.03;;;11.52;62.79
4570;BME280;2297;51.442;6.996;2023-02-18T02:39:04;100785.91;;;11.47;62.65
4570;BME280;2297;51.442;6.996;2023-02-18T02:41:53;100773.94;;;11.25;63.21
4570;BME280;2297;51.442;6.996;2023-02-18T02:44:30;100787.72;;;11.45;63.18
4570;BME280;2297;51.442;6.996;2023-02-18T02:46:59;100772.94;;;11.34;63.40
4570;BME280;2297;51.442;6.996;2023-02-18T02:49:35;100764.97;;;11.35;63.55
4570;BME280;2297;51.442;6.996;2023-02-18T02:52:10;100772.31;;;11.68;62.52
4570;BME280;2297;51.442;6.996;2023-02-18T02:54:38;100767.88;;;11.71;62.23
4570;BME280;2297;51.442;6.996;2023-02-18T02:57:08;100769.97;;;11.51;63.07
4570;BME280;2297;51.442;6.996;2023-02-18T02:59:36;100763.44;;;11.22;63.63
4570;BME280;2297;51.442;6.996;2023-02-18T03:02:17;100762.22;;;11.40;63.45
4570;BME280;2297;51.442;6.996;2023-02-18T03:04:56;100758.88;;;11.30;63.79
4570;BME280;2297;51.442;6.996;2023-02-18T03:10:25;100752.22;;;11.59;62.92
4570;BME280;2297;51.442;6.996;2023-02-18T03:13:03;100743.59;;;11.47;64.00
4570;BME280;2297;51.442;6.996;2023-02-18T03:15:37;100735.75;;;11.41;64.14
4570;BME280;2297;51.442;6.996;2023-02-18T03:18:10;100725.63;;;11.65;63.63
4570;BME280;2297;51.442;6.996;2023-02-18T03:20:46;100727.50;;;11.61;63.83
4570;BME280;2297;51.442;6.996;2023-02-18T03:23:20;100719.19;;;11.78;63.14
4570;BME280;2297;51.442;6.996;2023-02-18T03:25:49;100718.16;;;11.40;64.68
4570;BME280;2297;51.442;6.996;2023-02-18T03:28:18;100717.75;;;11.13;66.06
4570;BME280;2297;51.442;6.996;2023-02-18T03:30:48;100714.91;;;11.26;65.56
4570;BME280;2297;51.442;6.996;2023-02-18T03:33:19;100720.03;;;11.35;65.33
4570;BME280;2297;51.442;6.996;2023-02-18T03:35:48;100703.09;;;10.92;66.98
4570;BME280;2297;51.442;6.996;2023-02-18T03:38:20;100701.75;;;11.21;66.25
4570;BME280;2297;51.442;6.996;2023-02-18T03:40:48;100699.03;;;11.26;65.97
4570;BME280;2297;51.442;6.996;2023-02-18T03:43:15;100693.41;;;11.44;65.43
4570;BME280;2297;51.442;6.996;2023-02-18T03:45:42;100695.47;;;11.28;66.00
4570;BME280;2297;51.442;6.996;2023-02-18T03:48:09;100690.72;;;11.46;65.51
4570;BME280;2297;51.442;6.996;2023-02-18T03:50:36;100682.09;;;11.36;65.95
4570;BME280;2297;51.442;6.996;2023-02-18T03:53:02;100690.81;;;11.41;65.54
4570;BME280;2297;51.442;6.996;2023-02-18T03:55:30;100685.56;;;11.38;65.88
4570;BME280;2297;51.442;6.996;2023-02-18T03:57:57;100689.97;;;11.39;65.73
4570;BME280;2297;51.442;6.996;2023-02-18T04:00:23;100681.06;;;10.92;67.23
4570;BME280;2297;51.442;6.996;2023-02-18T04:02:50;100669.94;;;11.26;66.59
4570;BME280;2297;51.442;6.996;2023-02-18T04:05:17;100666.03;;;10.95;67.67
4570;BME280;2297;51.442;6.996;2023-02-18T04:07:44;100675.69;;;10.98;67.30
4570;BME280;2297;51.442;6.996;2023-02-18T04:10:10;100676.38;;;11.08;67.27
4570;BME280;2297;51.442;6.996;2023-02-18T04:12:38;100673.78;;;11.06;66.88
4570;BME280;2297;51.442;6.996;2023-02-18T04:15:05;100670.75;;;11.31;66.36
4570;BME280;2297;51.442;6.996;2023-02-18T04:17:32;100659.72;;;11.04;67.04
4570;BME280;2297;51.442;6.996;2023-02-18T04:19:59;100658.09;;;11.47;65.85
4570;BME280;2297;51.442;6.996;2023-02-18T04:22:26;100661.00;;;11.33;66.29
4570;BME280;2297;51.442;6.996;2023-02-18T04:24:52;100653.03;;;10.81;67.78
4570;BME280;2297;51.442;6.996;2023-02-18T04:27:19;100652.41;;;11.22;66.79
4570;BME280;2297;51.442;6.996;2023-02-18T04:29:47;100644.94;;;10.91;67.28
4570;BME280;2297;51.442;6.996;2023-02-18T04:32:14;100644.78;;;11.02;67.58
4570;BME280;2297;51.442;6.996;2023-02-18T04:34:40;100637.16;;;10.85;68.23
4570;BME280;2297;51.442;6.996;2023-02-18T04:37:07;100645.88;;;10.90;68.42
4570;BME280;2297;51.442;6.996;2023-02-18T04:39:33;100629.69;;;11.08;67.38
4570;BME280;2297;51.442;6.996;2023-02-18T04:42:00;100627.81;;;11.17;67.13
4570;BME280;2297;51.442;6.996;2023-02-18T04:44:33;100624.50;;;11.02;68.13
4570;BME280;2297;51.442;6.996;2023-02-18T04:47:00;100626.47;;;10.92;68.21
4570;BME280;2297;51.442;6.996;2023-02-18T04:49:27;100619.44;;;10.90;68.43
4570;BME280;2297;51.442;6.996;2023-02-18T04:51:54;100619.13;;;11.08;67.92
4570;BME280;2297;51.442;6.996;2023-02-18T04:54:20;100617.69;;;10.89;68.15
4570;BME280;2297;51.442;6.996;2023-02-18T04:56:47;100621.31;;;10.85;68.70
4570;BME280;2297;51.442;6.996;2023-02-18T04:59:14;100619.84;;;10.65;69.40
4570;BME280;2297;51.442;6.996;2023-02-18T05:01:41;100620.88;;;10.58;69.54
4570;BME280;2297;51.442;6.996;2023-02-18T05:04:09;100600.50;;;10.63;69.69
4570;BME280;2297;51.442;6.996;2023-02-18T05:06:36;100602.44;;;10.53;69.50
4570;BME280;2297;51.442;6.996;2023-02-18T05:09:04;100600.19;;;10.81;69.26
4570;BME280;2297;51.442;6.996;2023-02-18T05:11:31;100596.81;;;10.73;69.40
4570;BME280;2297;51.442;6.996;2023-02-18T05:13:58;100595.66;;;10.90;69.04
4570;BME280;2297;51.442;6.996;2023-02-18T05:16:24;100588.38;;;11.03;68.46
4570;BME280;2297;51.442;6.996;2023-02-18T05:18:51;100591.13;;;10.98;68.32
4570;BME280;2297;51.442;6.996;2023-02-18T05:21:19;100585.25;;;10.80;69.03
4570;BME280;2297;51.442;6.996;2023-02-18T05:23:46;100585.56;;;10.63;69.52
4570;BME280;2297;51.442;6.996;2023-02-18T05:26:12;100579.50;;;10.57;69.66
4570;BME280;2297;51.442;6.996;2023-02-18T05:28:39;100576.00;;;10.55;69.40
4570;BME280;2297;51.442;6.996;2023-02-18T05:31:30;100561.53;;;10.77;69.20
4570;BME280;2297;51.442;6.996;2023-02-18T05:33:57;100572.16;;;10.74;69.03
4570;BME280;2297;51.442;6.996;2023-02-18T05:36:25;100569.59;;;10.68;69.41
4570;BME280;2297;51.442;6.996;2023-02-18T05:38:52;100563.81;;;10.47;70.06
4570;BME280;2297;51.442;6.996;2023-02-18T05:41:19;100561.97;;;10.53;69.91
4570;BME280;2297;51.442;6.996;2023-02-18T05:43:45;100553.84;;;10.63;69.62
4570;BME280;2297;51.442;6.996;2023-02-18T05:46:30;100549.72;;;10.48;70.06
4570;BME280;2297;51.442;6.996;2023-02-18T05:48:56;100535.59;;;10.50;69.84
4570;BME280;2297;51.442;6.996;2023-02-18T05:51:24;100539.16;;;10.48;69.70
4570;BME280;2297;51.442;6.996;2023-02-18T05:53:51;100539.00;;;10.58;69.29
4570;BME280;2297;51.442;6.996;2023-02-18T05:56:17;100538.16;;;10.54;69.92
4570;BME280;2297;51.442;6.996;2023-02-18T05:58:44;100534.19;;;10.27;70.37
4570;BME280;2297;51.442;6.996;2023-02-18T06:01:11;100531.38;;;10.39;69.90
4570;BME280;2297;51.442;6.996;2023-02-18T06:03:37;100521.16;;;10.69;69.05
4570;BME280;2297;51.442;6.996;2023-02-18T06:06:05;100530.13;;;10.62;69.47
4570;BME280;2297;51.442;6.996;2023-02-18T06:08:33;100530.78;;;10.73;69.10
4570;BME280;2297;51.442;6.996;2023-02-18T06:11:00;100543.38;;;10.57;69.50
4570;BME280;2297;51.442;6.996;2023-02-18T06:13:26;100539.31;;;10.38;69.96
4570;BME280;2297;51.442;6.996;2023-02-18T06:15:53;100533.88;;;10.48;69.76
4570;BME280;2297;51.442;6.996;2023-02-18T06:18:20;100531.03;;;10.06;70.81
4570;BME280;2297;51.442;6.996;2023-02-18T06:20:47;100525.53;;;10.19;71.31
4570;BME280;2297;51.442;6.996;2023-02-18T06:23:14;100510.97;;;10.49;69.85
4570;BME280;2297;51.442;6.996;2023-02-18T06:25:42;100519.72;;;10.53;69.43
4570;BME280;2297;51.442;6.996;2023-02-18T06:28:08;100530.53;;;10.37;70.19
4570;BME280;2297;51.442;6.996;2023-02-18T06:30:35;100529.06;;;10.18;70.86
4570;BME280;2297;51.442;6.996;2023-02-18T06:33:02;100509.72;;;10.19;70.73
4570;BME280;2297;51.442;6.996;2023-02-18T06:35:29;100524.25;;;10.43;70.33
4570;BME280;2297;51.442;6.996;2023-02-18T06:37:55;100523.41;;;10.42;70.08
4570;BME280;2297;51.442;6.996;2023-02-18T06:40:22;100525.31;;;10.34;70.24
4570;BME280;2297;51.442;6.996;2023-02-18T06:42:50;100530.78;;;10.73;69.35
4570;BME280;2297;51.442;6.996;2023-02-18T06:45:17;100527.22;;;10.76;68.81
4570;BME280;2297;51.442;6.996;2023-02-18T06:47:44;100529.75;;;10.30;69.74
4570;BME280;2297;51.442;6.996;2023-02-18T06:50:10;100525.13;;;10.45;69.30
4570;BME280;2297;51.442;6.996;2023-02-18T06:52:37;100531.53;;;10.28;69.83
4570;BME280;2297;51.442;6.996;2023-02-18T06:55:04;100537.47;;;9.84;71.04
4570;BME280;2297;51.442;6.996;2023-02-18T06:57:31;100536.16;;;10.16;70.34
4570;BME280;2297;51.442;6.996;2023-02-18T06:59:59;100535.97;;;10.28;70.09
4570;BME280;2297;51.442;6.996;2023-02-18T07:02:26;100531.31;;;10.42;69.52
4570;BME280;2297;51.442;6.996;2023-02-18T07:04:52;100528.63;;;10.45;69.23
4570;BME280;2297;51.442;6.996;2023-02-18T07:07:19;100530.16;;;10.04;70.67
4570;BME280;2297;51.442;6.996;2023-02-18T07:09:46;100522.44;;;9.89;70.57
4570;BME280;2297;51.442;6.996;2023-02-18T07:12:12;100532.84;;;10.01;70.62
4570;BME280;2297;51.442;6.996;2023-02-18T07:14:39;100516.34;;;9.85;71.42
4570;BME280;2297;51.442;6.996;2023-02-18T07:17:07;100528.94;;;10.27;70.12
4570;BME280;2297;51.442;6.996;2023-02-18T07:19:34;100530.75;;;10.22;70.19
4570;BME280;2297;51.442;6.996;2023-02-18T07:22:00;100518.38;;;9.68;71.30
4570;BME280;2297;51.442;6.996;2023-02-18T07:24:27;100541.59;;;10.06;70.29
4570;BME280;2297;51.442;6.996;2023-02-18T07:26:53;100525.94;;;9.91;70.49
4570;BME280;2297;51.442;6.996;2023-02-18T07:29:20;100532.56;;;10.20;69.37
4570;BME280;2297;51.442;6.996;2023-02-18T07:31:47;100523.75;;;10.21;69.31
4570;BME280;2297;51.442;6.996;2023-02-18T07:34:15;100529.44;;;9.93;69.30
4570;BME280;2297;51.442;6.996;2023-02-18T07:36:41;100543.41;;;10.01;69.66
4570;BME280;2297;51.442;6.996;2023-02-18T07:39:08;100542.03;;;10.33;67.89
4570;BME280;2297;51.442;6.996;2023-02-18T07:41:35;100539.91;;;9.99;68.01
4570;BME280;2297;51.442;6.996;2023-02-18T07:44:01;100542.75;;;10.43;67.19
4570;BME280;2297;51.442;6.996;2023-02-18T07:46:28;100549.91;;;10.36;66.74
4570;BME280;2297;51.442;6.996;2023-02-18T07:48:57;100554.72;;;10.64;66.20
4570;BME280;2297;51.442;6.996;2023-02-18T07:51:25;100546.59;;;10.22;67.14
4570;BME280;2297;51.442;6.996;2023-02-18T07:53:52;100545.09;;;10.60;65.64
4570;BME280;2297;51.442;6.996;2023-02-18T07:56:18;100553.25;;;10.47;65.94
4570;BME280;2297;51.442;6.996;2023-02-18T07:58:45;100540.69;;;10.62;65.54
4570;BME280;2297;51.442;6.996;2023-02-18T08:01:13;100540.34;;;10.80;65.57
4570;BME280;2297;51.442;6.996;2023-02-18T08:03:40;100555.59;;;10.08;67.65
4570;BME280;2297;51.442;6.996;2023-02-18T08:06:08;100591.44;;;10.25;67.93
4570;BME280;2297;51.442;6.996;2023-02-18T08:08:46;100562.69;;;10.06;68.25
4570;BME280;2297;51.442;6.996;2023-02-18T08:11:12;100580.09;;;10.20;68.03
4570;BME280;2297;51.442;6.996;2023-02-18T08:13:39;100573.66;;;10.36;67.57
4570;BME280;2297;51.442;6.996;2023-02-18T08:16:05;100580.75;;;10.32;67.66
4570;BME280;2297;51.442;6.996;2023-02-18T08:18:32;100568.53;;;10.27;68.31
4570;BME280;2297;51.442;6.996;2023-02-18T08:20:59;100574.75;;;10.23;67.80
4570;BME280;2297;51.442;6.996;2023-02-18T08:23:25;100559.25;;;9.98;68.64
4570;BME280;2297;51.442;6.996;2023-02-18T08:25:53;100565.72;;;9.75;68.62
4570;BME280;2297;51.442;6.996;2023-02-18T08:28:21;100575.19;;;9.90;68.59
4570;BME280;2297;51.442;6.996;2023-02-18T08:30:50;100569.75;;;10.04;67.82
4570;BME280;2297;51.442;6.996;2023-02-18T08:33:17;100568.94;;;10.57;66.90
4570;BME280;2297;51.442;6.996;2023-02-18T08:35:45;100561.25;;;10.41;66.39
4570;BME280;2297;51.442;6.996;2023-02-18T08:38:12;100559.00;;;10.71;65.46
4570;BME280;2297;51.442;6.996;2023-02-18T08:40:39;100560.88;;;10.63;65.87
4570;BME280;2297;51.442;6.996;2023-02-18T08:43:08;100561.69;;;10.13;67.72
4570;BME280;2297;51.442;6.996;2023-02-18T08:45:35;100566.00;;;10.21;67.77
4570;BME280;2297;51.442;6.996;2023-02-18T08:48:02;100572.19;;;10.17;66.97
4570;BME280;2297;51.442;6.996;2023-02-18T08:50:29;100573.84;;;10.24;66.46
4570;BME280;2297;51.442;6.996;2023-02-18T08:52:56;100565.19;;;10.14;66.41
4570;BME280;2297;51.442;6.996;2023-02-18T08:55:25;100559.59;;;9.73;66.80
4570;BME280;2297;51.442;6.996;2023-02-18T08:57:51;100564.78;;;9.81;66.62
4570;BME280;2297;51.442;6.996;2023-02-18T09:00:20;100566.59;;;9.76;66.24
4570;BME280;2297;51.442;6.996;2023-02-18T09:02:47;100563.75;;;9.90;65.89
4570;BME280;2297;51.442;6.996;2023-02-18T09:05:14;100561.66;;;10.15;64.46
4570;BME280;2297;51.442;6.996;2023-02-18T09:07:41;100560.50;;;9.71;64.81
4570;BME280;2297;51.442;6.996;2023-02-18T09:10:09;100554.78;;;10.06;63.50
4570;BME280;2297;51.442;6.996;2023-02-18T09:12:36;100557.28;;;10.16;63.13
4570;BME280;2297;51.442;6.996;2023-02-18T09:15:04;100567.84;;;10.12;62.95
4570;BME280;2297;51.442;6.996;2023-02-18T09:17:32;100557.88;;;10.33;62.60
4570;BME280;2297;51.442;6.996;2023-02-18T09:19:59;100557.44;;;10.03;62.88
4570;BME280;2297;51.442;6.996;2023-02-18T09:22:25;100569.66;;;10.10;62.85
4570;BME280;2297;51.442;6.996;2023-02-18T09:24:52;100560.50;;;10.33;62.12
4570;BME280;2297;51.442;6.996;2023-02-18T09:27:19;100566.28;;;10.02;62.06
4570;BME280;2297;51.442;6.996;2023-02-18T09:29:46;100561.34;;;9.74;63.04
4570;BME280;2297;51.442;6.996;2023-02-18T09:32:13;100571.53;;;10.02;62.36
4570;BME280;2297;51.442;6.996;2023-02-18T09:34:41;100566.56;;;9.77;62.63
4570;BME280;2297;51.442;6.996;2023-02-18T09:37:08;100572.56;;;9.89;62.51
4570;BME280;2297;51.442;6.996;2023-02-18T09:39:35;100557.59;;;9.91;62.27
4570;BME280;2297;51.442;6.996;2023-02-18T09:42:05;100558.88;;;9.60;63.46
4570;BME280;2297;51.442;6.996;2023-02-18T09:44:35;100555.75;;;9.99;62.27
4570;BME280;2297;51.442;6.996;2023-02-18T09:47:05;100561.69;;;9.46;63.33
4570;BME280;2297;51.442;6.996;2023-02-18T09:49:39;100549.72;;;9.86;62.52
4570;BME280;2297;51.442;6.996;2023-02-18T09:52:13;100561.78;;;10.07;62.12
4570;BME280;2297;51.442;6.996;2023-02-18T09:54:40;100555.78;;;9.96;61.86
4570;BME280;2297;51.442;6.996;2023-02-18T09:57:18;100570.81;;;9.89;62.05
4570;BME280;2297;51.442;6.996;2023-02-18T09:59:52;100571.44;;;10.08;61.70
4570;BME280;2297;51.442;6.996;2023-02-18T10:02:22;100566.97;;;10.13;61.67
4570;BME280;2297;51.442;6.996;2023-02-18T10:04:50;100547.13;;;9.85;62.55
4570;BME280;2297;51.442;6.996;2023-02-18T10:07:22;100557.78;;;9.78;61.82
4570;BME280;2297;51.442;6.996;2023-02-18T10:09:51;100546.06;;;10.01;61.41
4570;BME280;2297;51.442;6.996;2023-02-18T10:12:21;100551.22;;;10.07;61.26
4570;BME280;2297;51.442;6.996;2023-02-18T10:14:50;100545.75;;;10.21;60.68
4570;BME280;2297;51.442;6.996;2023-02-18T10:17:17;100545.78;;;10.17;60.82
4570;BME280;2297;51.442;6.996;2023-02-18T10:19:48;100563.97;;;9.74;62.67
4570;BME280;2297;51.442;6.996;2023-02-18T10:22:16;100554.19;;;9.82;62.55
4570;BME280;2297;51.442;6.996;2023-02-18T10:24:47;100570.09;;;9.76;62.76
4570;BME280;2297;51.442;6.996;2023-02-18T10:27:20;100560.25;;;9.89;63.09
4570;BME280;2297;51.442;6.996;2023-02-18T10:29:48;100562.66;;;10.08;62.37
4570;BME280;2297;51.442;6.996;2023-02-18T10:32:20;100559.13;;;10.07;62.39
4570;BME280;2297;51.442;6.996;2023-02-18T10:34:51;100561.97;;;9.92;62.77
4570;BME280;2297;51.442;6.996;2023-02-18T10:37:31;100563.97;;;10.35;61.99
4570;BME280;2297;51.442;6.996;2023-02-18T10:40:08;100563.69;;;9.97;62.68
4570;BME280;2297;51.442;6.996;2023-02-18T10:42:42;100578.47;;;10.09;62.78
4570;BME280;2297;51.442;6.996;2023-02-18T10:45:20;100586.94;;;9.68;64.16
4570;BME280;2297;51.442;6.996;2023-02-18T10:47:57;100573.41;;;9.94;64.49
4570;BME280;2297;51.442;6.996;2023-02-18T10:50:30;100575.16;;;9.92;64.63
4570;BME280;2297;51.442;6.996;2023-02-18T10:53:01;100583.53;;;10.25;63.89
4570;BME280;2297;51.442;6.996;2023-02-18T10:55:37;100588.94;;;10.16;64.14
4570;BME280;2297;51.442;6.996;2023-02-18T10:58:23;100585.66;;;9.98;64.18
4570;BME280;2297;51.442;6.996;2023-02-18T11:00:51;100587.13;;;10.18;64.82
4570;BME280;2297;51.442;6.996;2023-02-18T11:03:19;100597.38;;;10.38;64.12
4570;BME280;2297;51.442;6.996;2023-02-18T11:05:49;100600.50;;;10.07;64.88
4570;BME280;2297;51.442;6.996;2023-02-18T11:08:19;100595.09;;;10.16;64.90
4570;BME280;2297;51.442;6.996;2023-02-18T11:10:49;100603.28;;;9.96;65.51
4570;BME280;2297;51.442;6.996;2023-02-18T11:13:22;100597.75;;;10.14;65.04
4570;BME280;2297;51.442;6.996;2023-02-18T11:15:56;100600.44;;;10.10;65.31
4570;BME280;2297;51.442;6.996;2023-02-18T11:18:39;100611.34;;;9.80;66.45
4570;BME280;2297;51.442;6.996;2023-02-18T11:21:20;100608.72;;;9.84;66.15
4570;BME280;2297;51.442;6.996;2023-02-18T11:23:48;100601.41;;;10.04;66.09
4570;BME280;2297;51.442;6.996;2023-02-18T11:26:18;100596.47;;;9.76;67.21
4570;BME280;2297;51.442;6.996;2023-02-18T11:28:48;100585.75;;;9.90;66.43
4570;BME280;2297;51.442;6.996;2023-02-18T11:31:20;100589.31;;;9.85;67.10
4570;BME280;2297;51.442;6.996;2023-02-18T11:33:50;100597.81;;;10.11;66.51
4570;BME280;2297;51.442;6.996;2023-02-18T11:36:22;100598.16;;;9.84;67.69
4570;BME280;2297;51.442;6.996;2023-02-18T11:38:52;100600.63;;;9.97;66.84
4570;BME280;2297;51.442;6.996;2023-02-18T11:41:28;100604.34;;;9.79;67.70
4570;BME280;2297;51.442;6.996;2023-02-18T11:43:56;100595.59;;;9.77;67.74
4570;BME280;2297;51.442;6.996;2023-02-18T11:46:25;100574.94;;;10.10;66.66
4570;BME280;2297;51.442;6.996;2023-02-18T11:48:52;100592.81;;;9.87;67.05
4570;BME280;2297;51.442;6.996;2023-02-18T11:51:23;100586.69;;;9.85;67.58
4570;BME280;2297;51.442;6.996;2023-02-18T11:53:56;100598.03;;;9.93;67.44
4570;BME280;2297;51.442;6.996;2023-02-18T11:56:27;100590.16;;;9.88;67.46
4570;BME280;2297;51.442;6.996;2023-02-18T11:58:54;100595.69;;;9.70;68.28
4570;BME280;2297;51.442;6.996;2023-02-18T12:01:30;100590.84;;;10.04;67.62
4570;BME280;2297;51.442;6.996;2023-02-18T12:04:05;100599.88;;;9.85;67.84
4570;BME280;2297;51.442;6.996;2023-02-18T12:06:36;100602.97;;;9.49;69.35
4570;BME280;2297;51.442;6.996;2023-02-18T12:09:06;100593.84;;;9.75;69.05
4570;BME280;2297;51.442;6.996;2023-02-18T12:11:37;100587.31;;;10.05;67.55
4570;BME280;2297;51.442;6.996;2023-02-18T12:14:17;100590.38;;;9.71;68.50
4570;BME280;2297;51.442;6.996;2023-02-18T12:16:53;100590.66;;;10.17;67.51
4570;BME280;2297;51.442;6.996;2023-02-18T12:19:46;100589.03;;;10.09;67.35
4570;BME280;2297;51.442;6.996;2023-02-18T12:22:17;100589.50;;;9.72;68.54
4570;BME280;2297;51.442;6.996;2023-02-18T12:25:03;100590.03;;;10.02;67.95
4570;BME280;2297;51.442;6.996;2023-02-18T12:27:41;100585.06;;;9.73;68.68
4570;BME280;2297;51.442;6.996;2023-02-18T12:30:28;100600.00;;;9.75;68.93
4570;BME280;2297;51.442;6.996;2023-02-18T12:33:04;100585.91;;;9.76;69.08
4570;BME280;2297;51.442;6.996;2023-02-18T12:35:52;100588.97;;;10.12;68.26
4570;BME280;2297;51.442;6.996;2023-02-18T12:38:53;100592.38;;;10.21;67.52
4570;BME280;2297;51.442;6.996;2023-02-18T12:42:06;100579.72;;;9.79;69.09
4570;BME280;2297;51.442;6.996;2023-02-18T12:44:42;100575.28;;;9.82;69.08
4570;BME280;2297;51.442;6.996;2023-02-18T12:47:29;100579.47;;;10.01;68.88
4570;BME280;2297;51.442;6.996;2023-02-18T12:50:14;100576.56;;;10.21;68.34
4570;BME280;2297;51.442;6.996;2023-02-18T12:52:58;100576.50;;;10.24;67.83
4570;BME280;2297;51.442;6.996;2023-02-18T12:55:42;100582.19;;;9.93;68.69
4570;BME280;2297;51.442;6.996;2023-02-18T12:58:24;100578.88;;;9.78;69.29
4570;BME280;2297;51.442;6.996;2023-02-18T13:01:08;100573.09;;;10.16;68.41
4570;BME280;2297;51.442;6.996;2023-02-18T13:04:00;100574.06;;;10.08;68.74
4570;BME280;2297;51.442;6.996;2023-02-18T13:06:41;100572.25;;;10.13;68.37
4570;BME280;2297;51.442;6.996;2023-02-18T13:09:21;100574.25;;;9.96;69.12
4570;BME280;2297;51.442;6.996;2023-02-18T13:11:57;100577.84;;;9.90;69.36
4570;BME280;2297;51.442;6.996;2023-02-18T13:14:29;100580.38;;;9.98;69.03
4570;BME280;2297;51.442;6.996;2023-02-18T13:17:00;100575.78;;;10.12;68.38
4570;BME280;2297;51.442;6.996;2023-02-18T13:19:31;100587.50;;;9.90;69.24
4570;BME280;2297;51.442;6.996;2023-02-18T13:22:02;100569.00;;;9.96;69.27
4570;BME280;2297;51.442;6.996;2023-02-18T13:24:33;100570.72;;;9.95;69.51
4570;BME280;2297;51.442;6.996;2023-02-18T13:27:07;100576.34;;;10.33;68.53
4570;BME280;2297;51.442;6.996;2023-02-18T13:29:43;100570.03;;;10.42;67.87
4570;BME280;2297;51.442;6.996;2023-02-18T13:32:18;100572.03;;;10.29;68.51
4570;BME280;2297;51.442;6.996;2023-02-18T13:34:51;100594.50;;;9.94;69.70